createdAt,value
2023-01-19T00:02:31.868Z,0.50
2023-01-19T00:05:37.370Z,0.70
2023-01-19T00:08:34.431Z,0.50
2023-01-19T00:11:18.493Z,0.40
2023-01-19T00:14:23.389Z,0.73
2023-01-19T00:17:30.952Z,0.50
2023-01-19T00:20:18.655Z,0.50
2023-01-19T00:23:07.791Z,0.38
2023-01-19T00:25:52.564Z,0.43
2023-01-19T00:28:46.770Z,0.40
2023-01-19T00:31:52.249Z,0.30
2023-01-19T00:39:04.740Z,0.52
2023-01-19T00:45:56.053Z,0.40
2023-01-19T00:48:40.535Z,0.30
2023-01-19T00:51:26.769Z,0.30
2023-01-19T00:54:41.044Z,0.50
2023-01-19T00:57:18.904Z,0.30
2023-01-19T00:59:55.534Z,0.40
2023-01-19T01:02:31.937Z,0.30
2023-01-19T01:05:21.873Z,0.33
2023-01-19T01:08:09.157Z,0.30
2023-01-19T01:10:39.207Z,0.32
2023-01-19T01:13:19.980Z,0.43
2023-01-19T01:19:23.102Z,0.20
2023-01-19T01:21:59.034Z,0.30
2023-01-19T01:24:47.984Z,0.25
2023-01-19T01:27:43.750Z,0.20
2023-01-19T01:30:35.435Z,0.30
2023-01-19T01:33:58.949Z,0.20
2023-01-19T01:36:36.022Z,0.40
2023-01-19T01:43:03.419Z,0.60
2023-01-19T01:45:58.726Z,0.52
2023-01-19T01:48:42.552Z,0.20
2023-01-19T01:52:15.463Z,0.30
2023-01-19T01:55:01.756Z,0.30
2023-01-19T01:58:03.979Z,0.40
2023-01-19T02:01:01.802Z,0.73
2023-01-19T02:06:54.087Z,0.40
2023-01-19T02:10:06.488Z,0.30
2023-01-19T02:25:43.387Z,0.30
2023-01-19T02:27:54.870Z,0.38
2023-01-19T02:30:59.684Z,0.38
2023-01-19T02:34:03.838Z,0.40
2023-01-19T02:37:05.706Z,0.30
2023-01-19T02:39:51.073Z,0.40
2023-01-19T02:42:55.149Z,0.30
2023-01-19T02:48:28.209Z,0.32
2023-01-19T02:51:41.982Z,0.27
2023-01-19T02:55:00.065Z,0.28
2023-01-19T02:58:27.908Z,0.63
2023-01-19T03:01:53.386Z,0.30
2023-01-19T03:05:40.071Z,0.20
2023-01-19T03:08:46.711Z,0.33
2023-01-19T03:11:32.153Z,0.60
2023-01-19T03:14:38.139Z,0.47
2023-01-19T03:17:44.078Z,0.60
2023-01-19T03:20:39.361Z,0.40
2023-01-19T03:23:37.396Z,0.70
2023-01-19T03:26:36.505Z,0.30
2023-01-19T03:29:40.317Z,0.50
2023-01-19T03:32:35.263Z,0.40
2023-01-19T03:35:20.219Z,0.40
2023-01-19T03:37:58.262Z,0.60
2023-01-19T03:40:49.081Z,0.40
2023-01-19T03:44:14.313Z,0.50
2023-01-19T03:47:30.393Z,0.40
2023-01-19T03:50:12.945Z,0.45
2023-01-19T03:53:10.071Z,0.50
2023-01-19T03:55:53.292Z,0.75
2023-01-19T03:58:24.282Z,0.60
2023-01-19T04:01:21.026Z,1.13
2023-01-19T04:04:15.661Z,0.70
2023-01-19T04:07:16.904Z,0.50
2023-01-19T04:10:17.798Z,0.60
2023-01-19T04:13:09.477Z,0.68
2023-01-19T04:15:45.463Z,0.70
2023-01-19T04:18:41.669Z,0.50
2023-01-19T04:21:48.854Z,0.50
2023-01-19T04:24:37.666Z,0.63
2023-01-19T04:27:55.398Z,0.43
2023-01-19T04:30:51.959Z,0.65
2023-01-19T04:33:36.939Z,0.57
2023-01-19T04:36:40.674Z,0.47
2023-01-19T04:39:24.758Z,1.02
2023-01-19T04:42:54.937Z,0.60
2023-01-19T04:45:05.602Z,0.80
2023-01-19T04:47:45.531Z,0.60
2023-01-19T04:51:31.834Z,0.60
2023-01-19T04:54:09.212Z,1.00
2023-01-19T04:57:08.107Z,0.70
2023-01-19T04:59:42.127Z,0.57
2023-01-19T05:02:28.956Z,0.50
2023-01-19T05:05:40.723Z,0.63
2023-01-19T05:08:26.896Z,2.13
2023-01-19T05:11:01.440Z,0.75
2023-01-19T05:13:33.938Z,1.08
2023-01-19T05:16:40.137Z,0.60
2023-01-19T05:19:54.971Z,0.60
2023-01-19T05:22:38.275Z,0.50
2023-01-19T05:25:20.454Z,0.80
2023-01-19T05:27:53.777Z,0.75
2023-01-19T05:30:44.002Z,0.90
2023-01-19T05:33:23.664Z,0.90
2023-01-19T05:36:11.853Z,0.45
2023-01-19T05:38:45.080Z,0.77
2023-01-19T05:41:27.095Z,0.60
2023-01-19T05:43:55.040Z,1.00
2023-01-19T05:46:24.379Z,0.70
2023-01-19T05:48:57.609Z,1.00
2023-01-19T05:51:34.872Z,0.63
2023-01-19T05:54:04.034Z,1.17
2023-01-19T05:56:40.604Z,0.80
2023-01-19T05:59:19.250Z,0.63
2023-01-19T06:02:39.552Z,0.60
2023-01-19T06:08:52.318Z,0.80
2023-01-19T06:11:57.038Z,1.33
2023-01-19T06:14:48.311Z,1.27
2023-01-19T06:57:44.756Z,2.75
2023-01-19T07:00:49.922Z,1.90
2023-01-19T07:04:10.555Z,2.13
2023-01-19T07:07:13.624Z,2.15
2023-01-19T07:14:44.664Z,1.98
2023-01-19T07:21:38.937Z,1.60
2023-01-19T07:25:06.908Z,1.73
2023-01-19T07:29:05.166Z,1.63
2023-01-19T07:39:52.531Z,1.90
2023-01-19T07:43:24.638Z,1.80
2023-01-19T07:50:20.404Z,1.63
2023-01-19T09:47:05.144Z,1.15
2023-01-19T09:50:00.384Z,1.20
2023-01-19T09:52:43.011Z,1.10
2023-01-19T10:11:09.520Z,1.00
2023-01-19T10:13:42.997Z,1.08
2023-01-19T10:16:49.835Z,1.00
2023-01-19T10:19:35.419Z,1.02
2023-01-19T10:22:47.360Z,1.52
2023-01-19T10:29:14.089Z,1.20
2023-01-19T10:32:25.443Z,1.48
2023-01-19T10:35:26.546Z,1.70
2023-01-19T10:38:14.607Z,0.88
2023-01-19T10:41:11.444Z,1.70
2023-01-19T10:43:49.451Z,1.20
2023-01-19T10:46:37.697Z,1.30
2023-01-19T10:49:27.930Z,1.02
2023-01-19T10:52:07.574Z,0.70
2023-01-19T10:54:38.813Z,1.87
2023-01-19T10:57:56.147Z,1.10
2023-01-19T11:00:43.041Z,1.20
2023-01-19T11:03:32.822Z,1.00
2023-01-19T11:06:20.285Z,1.23
2023-01-19T11:09:30.462Z,1.33
2023-01-19T11:12:31.188Z,1.00
2023-01-19T11:15:19.455Z,0.90
2023-01-19T11:17:57.815Z,0.98
2023-01-19T11:20:56.174Z,0.73
2023-01-19T11:23:27.585Z,0.50
2023-01-19T11:26:02.988Z,0.50
2023-01-19T11:28:51.986Z,0.70
2023-01-19T11:31:35.712Z,0.70
2023-01-19T11:34:40.844Z,0.98
2023-01-19T11:37:28.962Z,0.85
2023-01-19T11:40:10.100Z,0.70
2023-01-19T11:46:24.791Z,1.13
2023-01-19T11:49:22.076Z,1.60
2023-01-19T11:52:22.037Z,1.70
2023-01-19T11:55:11.131Z,1.30
2023-01-19T11:57:47.768Z,1.33
2023-01-19T12:00:25.640Z,1.73
2023-01-19T12:02:59.663Z,1.00
2023-01-19T12:05:33.597Z,1.40
2023-01-19T12:08:07.120Z,1.13
2023-01-19T12:10:41.745Z,0.90
2023-01-19T12:13:20.936Z,0.97
2023-01-19T12:15:54.570Z,0.82
2023-01-19T12:18:25.783Z,1.10
2023-01-19T12:20:55.870Z,0.80
2023-01-19T12:23:40.614Z,0.82
2023-01-19T12:26:39.162Z,0.60
2023-01-19T12:29:18.923Z,0.70
2023-01-19T12:32:16.805Z,0.80
2023-01-19T12:34:56.004Z,1.50
2023-01-19T12:37:31.044Z,0.98
2023-01-19T12:40:03.996Z,0.63
2023-01-19T12:42:33.421Z,0.83
2023-01-19T12:45:36.833Z,1.60
2023-01-19T12:48:05.514Z,1.10
2023-01-19T12:50:39.580Z,0.90
2023-01-19T12:53:17.968Z,0.77
2023-01-19T12:56:00.238Z,1.17
2023-01-19T12:58:28.064Z,0.60
2023-01-19T13:01:20.061Z,1.02
2023-01-19T13:04:03.693Z,0.95
2023-01-19T13:06:50.075Z,0.73
2023-01-19T13:09:32.495Z,0.70
2023-01-19T13:12:29.858Z,0.80
2023-01-19T13:15:34.130Z,1.00
2023-01-19T13:18:04.699Z,1.20
2023-01-19T13:21:09.631Z,0.70
2023-01-19T13:23:50.113Z,1.30
2023-01-19T13:26:23.409Z,0.70
2023-01-19T13:28:56.035Z,0.90
2023-01-19T13:31:25.397Z,1.25
2023-01-19T13:33:56.010Z,1.10
2023-01-19T13:36:36.375Z,1.02
2023-01-19T13:39:08.073Z,0.50
2023-01-19T13:41:39.555Z,0.40
2023-01-19T13:44:25.531Z,1.30
2023-01-19T13:46:54.541Z,0.90
2023-01-19T13:49:40.771Z,0.55
2023-01-19T13:52:22.449Z,0.80
2023-01-19T13:54:55.428Z,0.80
2023-01-19T13:57:40.178Z,0.80
2023-01-19T14:00:16.830Z,0.77
2023-01-19T14:03:11.795Z,0.70
2023-01-19T14:05:46.148Z,0.50
2023-01-19T14:08:15.397Z,0.63
2023-01-19T14:11:02.594Z,0.90
2023-01-19T14:13:40.305Z,0.63
2023-01-19T14:16:15.490Z,0.90
2023-01-19T14:18:43.148Z,0.98
2023-01-19T14:21:13.762Z,0.73
2023-01-19T14:23:44.994Z,1.10
2023-01-19T14:26:37.423Z,0.90
2023-01-19T14:29:16.868Z,1.00
2023-01-19T14:31:50.077Z,0.75
2023-01-19T14:34:41.592Z,2.40
2023-01-19T14:37:25.920Z,1.33
2023-01-19T14:40:17.450Z,1.33
2023-01-19T14:42:50.008Z,2.08
2023-01-19T14:45:27.760Z,1.65
2023-01-19T14:48:18.196Z,1.95
2023-01-19T14:51:02.109Z,2.10
2023-01-19T14:53:38.890Z,2.37
2023-01-19T14:56:07.466Z,2.40
2023-01-19T14:58:35.941Z,3.30
2023-01-19T15:01:04.856Z,1.90
2023-01-19T15:03:48.250Z,1.92
2023-01-19T15:06:21.494Z,2.37
2023-01-19T15:08:51.273Z,1.53
2023-01-19T15:11:32.289Z,1.35
2023-01-19T15:14:00.435Z,0.80
2023-01-19T15:16:32.974Z,0.90
2023-01-19T15:19:00.818Z,0.90
2023-01-19T15:24:47.472Z,0.60
2023-01-19T15:28:44.550Z,0.80
2023-01-19T15:34:51.023Z,0.63
2023-01-19T15:47:39.802Z,0.70
2023-01-19T15:50:42.842Z,0.57
2023-01-19T15:54:22.366Z,0.57
2023-01-19T16:05:54.858Z,1.45
2023-01-19T16:52:25.014Z,2.55
2023-01-19T16:55:21.652Z,2.83
2023-01-19T16:58:00.044Z,1.73
2023-01-19T17:00:33.153Z,2.28
2023-01-19T17:03:10.255Z,2.17
2023-01-19T17:05:54.915Z,2.50
2023-01-19T17:08:39.499Z,1.60
2023-01-19T17:11:13.256Z,1.85
2023-01-19T17:13:42.366Z,1.73
2023-01-19T17:16:18.654Z,1.38
2023-01-19T17:18:55.824Z,1.80
2023-01-19T17:21:23.625Z,1.60
2023-01-19T17:23:53.799Z,1.80
2023-01-19T17:26:34.169Z,1.90
2023-01-19T17:29:07.185Z,1.85
2023-01-19T17:31:35.892Z,1.75
2023-01-19T17:34:06.822Z,2.17
2023-01-19T17:36:41.273Z,1.80
2023-01-19T17:39:14.934Z,2.80
2023-01-19T17:41:44.483Z,1.92
2023-01-19T17:44:16.850Z,2.53
2023-01-19T17:46:51.410Z,2.00
2023-01-19T17:49:24.643Z,2.40
2023-01-19T17:51:57.470Z,2.58
2023-01-19T17:54:36.047Z,2.28
2023-01-19T17:57:06.290Z,3.13
2023-01-19T17:59:40.326Z,3.40
2023-01-19T18:02:16.510Z,3.60
2023-01-19T18:04:44.368Z,3.50
2023-01-19T18:07:14.890Z,3.72
2023-01-19T18:09:42.492Z,3.30
2023-01-19T18:12:10.157Z,2.90
2023-01-19T18:14:38.224Z,3.00
2023-01-19T18:17:06.071Z,2.95
2023-01-19T18:19:33.818Z,2.50
2023-01-19T18:22:02.138Z,2.40
2023-01-19T18:24:29.722Z,2.28
2023-01-19T18:26:57.662Z,1.80
2023-01-19T18:29:26.257Z,1.80
2023-01-19T18:31:53.889Z,1.55
2023-01-19T18:34:21.472Z,1.60
2023-01-19T18:36:49.122Z,1.20
2023-01-19T18:39:16.575Z,1.20
2023-01-19T18:41:45.100Z,1.00
2023-01-19T18:44:12.834Z,1.15
2023-01-19T18:46:40.639Z,1.08
2023-01-19T18:49:08.189Z,0.80
2023-01-19T18:51:36.906Z,0.93
2023-01-19T18:54:04.573Z,0.88
2023-01-19T18:56:33.876Z,1.10
2023-01-19T18:59:05.241Z,0.93
2023-01-19T19:01:36.867Z,0.60
2023-01-19T19:04:05.217Z,0.83
2023-01-19T19:06:36.017Z,0.57
2023-01-19T19:09:14.378Z,0.70
2023-01-19T19:11:44.853Z,0.60
2023-01-19T19:14:15.378Z,0.88
2023-01-19T19:16:49.346Z,0.50
2023-01-19T19:19:17.569Z,0.68
2023-01-19T19:21:45.421Z,0.95
2023-01-19T19:24:13.756Z,0.50
2023-01-19T19:26:42.306Z,0.80
2023-01-19T19:29:10.351Z,0.60
2023-01-19T19:31:38.146Z,0.50
2023-01-19T19:34:05.827Z,0.70
2023-01-19T19:36:34.748Z,0.80
2023-01-19T19:39:02.718Z,0.63
2023-01-19T19:41:32.468Z,0.70
2023-01-19T19:44:00.457Z,0.60
2023-01-19T19:46:28.026Z,1.05
2023-01-19T19:48:55.751Z,0.77
2023-01-19T19:51:27.170Z,0.70
2023-01-19T19:53:56.989Z,0.90
2023-01-19T19:56:26.224Z,0.82
2023-01-19T19:58:56.117Z,0.77
2023-01-19T20:01:32.085Z,0.60
2023-01-19T20:04:08.808Z,0.90
2023-01-19T20:06:39.955Z,1.07
2023-01-19T20:09:10.065Z,0.75
2023-01-19T20:11:37.728Z,0.90
2023-01-19T20:14:09.759Z,1.10
2023-01-19T20:16:37.844Z,0.70
2023-01-19T20:19:06.149Z,0.90
2023-01-19T20:21:38.870Z,1.00
2023-01-19T20:24:14.291Z,1.10
2023-01-19T20:26:45.770Z,0.80
2023-01-19T20:29:16.020Z,0.73
2023-01-19T20:31:49.091Z,0.90
2023-01-19T20:34:21.713Z,0.70
2023-01-19T20:36:54.084Z,0.80
2023-01-19T20:39:26.892Z,0.90
2023-01-19T20:41:54.539Z,1.10
2023-01-19T20:44:24.371Z,0.90
2023-01-19T20:46:53.479Z,0.75
2023-01-19T20:49:21.836Z,0.60
2023-01-19T20:51:52.508Z,0.90
2023-01-19T20:54:26.411Z,0.80
2023-01-19T20:56:54.760Z,1.00
2023-01-19T20:59:23.315Z,0.90
2023-01-19T21:01:53.627Z,1.27
2023-01-19T21:04:22.579Z,1.10
2023-01-19T21:06:50.155Z,0.88
2023-01-19T21:09:18.754Z,1.03
2023-01-19T21:11:46.390Z,0.52
2023-01-19T21:14:19.434Z,0.75
2023-01-19T21:16:48.407Z,0.80
2023-01-19T21:19:15.991Z,0.52
2023-01-19T21:21:43.663Z,0.70
2023-01-19T21:24:11.560Z,0.98
2023-01-19T21:26:39.541Z,0.80
2023-01-19T21:29:07.564Z,0.60
2023-01-19T21:31:35.224Z,0.80
2023-01-19T21:34:02.932Z,0.70
2023-01-19T21:36:30.545Z,0.70
2023-01-19T21:39:00.991Z,0.70
2023-01-19T21:41:44.415Z,0.60
2023-01-19T21:44:15.900Z,0.60
2023-01-19T21:46:43.662Z,0.67
2023-01-19T21:49:18.312Z,0.80
2023-01-19T21:51:47.995Z,0.70
2023-01-19T21:54:15.789Z,0.52
2023-01-19T21:56:43.608Z,0.63
2023-01-19T21:59:15.049Z,0.57
2023-01-19T22:01:46.353Z,0.47
2023-01-19T22:04:17.284Z,0.50
2023-01-19T22:06:45.140Z,0.73
2023-01-19T22:09:12.759Z,0.60
2023-01-19T22:11:40.453Z,1.00
2023-01-19T22:14:08.909Z,0.50
2023-01-19T22:16:36.569Z,0.50
2023-01-19T22:19:04.248Z,0.52
2023-01-19T22:21:35.797Z,0.55
2023-01-19T22:24:07.771Z,0.60
2023-01-19T22:26:37.134Z,0.70
2023-01-19T22:29:06.564Z,0.52
2023-01-19T22:31:34.393Z,0.47
2023-01-19T22:34:02.166Z,0.70
2023-01-19T22:36:34.129Z,0.43
2023-01-19T22:39:08.261Z,0.52
2023-01-19T22:41:39.613Z,0.60
2023-01-19T22:44:11.060Z,0.50
2023-01-19T22:46:39.141Z,0.30
2023-01-19T22:49:10.079Z,0.40
2023-01-19T22:51:37.643Z,0.40
2023-01-19T22:54:05.347Z,0.40
2023-01-19T22:56:34.850Z,0.40
2023-01-19T22:59:03.997Z,0.30
2023-01-19T23:01:34.750Z,0.40
2023-01-19T23:04:04.436Z,0.60
2023-01-19T23:06:35.532Z,0.60
2023-01-19T23:09:12.940Z,0.57
2023-01-19T23:11:50.317Z,0.52
2023-01-19T23:14:20.835Z,0.30
2023-01-19T23:16:48.552Z,0.50
2023-01-19T23:19:17.439Z,0.40
2023-01-19T23:21:46.125Z,0.55
2023-01-19T23:24:13.810Z,0.40
2023-01-19T23:26:41.381Z,0.50
2023-01-19T23:29:14.231Z,0.30
2023-01-19T23:31:47.059Z,1.00
2023-01-19T23:34:15.255Z,0.70
2023-01-19T23:36:43.751Z,0.55
2023-01-19T23:39:13.659Z,0.43
2023-01-19T23:41:41.271Z,0.68
2023-01-19T23:44:09.286Z,0.45
2023-01-19T23:46:37.466Z,0.77
2023-01-19T23:49:05.069Z,0.57
2023-01-19T23:51:33.530Z,0.50
2023-01-19T23:54:01.778Z,0.40
2023-01-19T23:56:32.966Z,0.70
2023-01-19T23:59:10.661Z,0.70
